Terminal Aerodrome Forecast
Issued by NWS

Home | Current Version | Previous Version | Text Only | Print | Product List | Glossary On
Versions: 1 2 3 4 5 6 7 8 9 10 11 12 13 14 15 16 17
000
FTAK31 PANC 301923 AAA
TAFAVD
TAF AMD
PAVD 301923Z 3019/3118 VRB04KT 3SM -RA BR FEW001 BKN010 BKN030
      TEMPO 3019/3022 2SM BR BKN006
     FM302200 25008KT P6SM VCSH OVC020
     FM310600 08004KT P6SM -RA OVC010
      AMD LTD TO CLD VIS AND WIND=

USA.gov is the U.S. government's official web portal to all federal, state and local government web resources and services.